createdAt,value
2022-10-13T00:00:49.460Z,16.00
2022-10-13T00:03:16.845Z,16.00
2022-10-13T00:05:46.181Z,15.90
2022-10-13T00:08:14.873Z,15.90
2022-10-13T00:10:41.730Z,15.90
2022-10-13T00:13:08.938Z,15.90
2022-10-13T00:15:40.484Z,15.80
2022-10-13T00:18:07.744Z,15.70
2022-10-13T00:20:35.342Z,15.60
2022-10-13T00:23:02.147Z,15.50
2022-10-13T00:25:28.871Z,15.50
2022-10-13T00:27:55.566Z,15.50
2022-10-13T00:30:22.411Z,15.30
2022-10-13T00:32:49.128Z,15.40
2022-10-13T00:35:15.940Z,15.20
2022-10-13T00:37:42.636Z,15.20
2022-10-13T00:40:09.818Z,15.10
2022-10-13T00:42:36.520Z,15.00
2022-10-13T00:45:04.003Z,14.90
2022-10-13T00:47:38.499Z,14.70
2022-10-13T00:50:07.709Z,14.60
2022-10-13T00:52:34.661Z,14.70
2022-10-13T00:55:03.396Z,14.70
2022-10-13T00:57:30.304Z,14.70
2022-10-13T00:59:57.549Z,14.60
2022-10-13T01:02:29.286Z,14.50
2022-10-13T01:04:57.836Z,14.60
2022-10-13T01:07:24.691Z,14.40
2022-10-13T01:09:51.646Z,14.50
2022-10-13T01:12:53.175Z,14.70
2022-10-13T01:15:26.866Z,14.60
2022-10-13T01:18:25.370Z,14.50
2022-10-13T01:21:21.323Z,14.40
2022-10-13T01:23:56.950Z,14.40
2022-10-13T01:26:50.408Z,14.30
2022-10-13T01:29:45.488Z,14.20
2022-10-13T01:32:17.224Z,14.30
2022-10-13T01:34:51.403Z,14.40
2022-10-13T01:37:30.681Z,14.40
2022-10-13T01:40:27.078Z,14.40
2022-10-13T01:43:07.173Z,14.60
2022-10-13T01:45:48.737Z,14.60
2022-10-13T01:48:17.497Z,14.60
2022-10-13T01:50:44.532Z,14.50
2022-10-13T01:53:12.305Z,14.60
2022-10-13T01:55:53.019Z,14.60
2022-10-13T01:58:20.239Z,14.50
2022-10-13T02:01:28.001Z,14.40
2022-10-13T02:04:13.965Z,14.50
2022-10-13T02:07:09.155Z,14.50
2022-10-13T02:09:44.157Z,14.40
2022-10-13T02:12:22.866Z,14.30
2022-10-13T02:14:50.784Z,14.20
2022-10-13T02:17:17.884Z,14.20
2022-10-13T02:19:45.065Z,14.30
2022-10-13T02:22:15.041Z,14.40
2022-10-13T02:24:41.941Z,14.20
2022-10-13T02:27:09.093Z,14.20
2022-10-13T02:29:52.337Z,14.30
2022-10-13T02:32:19.628Z,14.20
2022-10-13T02:34:46.649Z,14.10
2022-10-13T02:37:13.929Z,14.20
2022-10-13T02:39:40.901Z,14.30
2022-10-13T02:42:07.900Z,14.10
2022-10-13T02:44:34.749Z,14.10
2022-10-13T02:47:01.445Z,14.00
2022-10-13T02:49:28.653Z,14.00
2022-10-13T02:51:55.358Z,14.00
2022-10-13T02:54:22.144Z,13.90
2022-10-13T02:56:48.957Z,13.90
2022-10-13T02:59:15.749Z,13.90
2022-10-13T03:01:44.298Z,14.00
2022-10-13T03:04:11.465Z,13.90
2022-10-13T03:06:38.449Z,13.80
2022-10-13T03:09:05.242Z,13.80
2022-10-13T03:11:32.006Z,13.80
2022-10-13T03:13:58.749Z,13.70
2022-10-13T03:16:25.497Z,13.50
2022-10-13T03:18:52.248Z,13.50
2022-10-13T03:21:18.981Z,13.50
2022-10-13T03:23:45.735Z,13.50
2022-10-13T03:26:12.661Z,13.50
2022-10-13T03:28:39.674Z,13.50
2022-10-13T03:31:08.584Z,13.60
2022-10-13T03:33:35.518Z,13.70
2022-10-13T03:36:04.744Z,13.60
2022-10-13T03:38:33.578Z,13.60
2022-10-13T03:41:08.508Z,13.70
2022-10-13T03:43:35.849Z,13.90
2022-10-13T03:46:04.934Z,13.90
2022-10-13T03:48:33.046Z,13.80
2022-10-13T03:50:59.855Z,13.70
2022-10-13T03:53:26.674Z,13.80
2022-10-13T03:55:55.854Z,13.70
2022-10-13T03:58:24.758Z,13.80
2022-10-13T04:00:52.164Z,13.80
2022-10-13T04:03:19.553Z,13.70
2022-10-13T04:05:46.764Z,13.70
2022-10-13T04:08:14.424Z,13.70
2022-10-13T04:10:41.496Z,13.60
2022-10-13T04:13:08.444Z,13.50
2022-10-13T04:15:40.362Z,13.50
2022-10-13T04:18:08.313Z,13.50
2022-10-13T04:20:39.505Z,13.50
2022-10-13T04:23:07.059Z,13.50
2022-10-13T04:25:38.979Z,13.40
2022-10-13T04:28:07.250Z,13.60
2022-10-13T04:30:35.532Z,13.60
2022-10-13T04:33:02.639Z,13.60
2022-10-13T04:35:29.540Z,13.60
2022-10-13T04:37:59.216Z,13.80
2022-10-13T04:40:26.825Z,13.80
2022-10-13T04:42:53.542Z,13.70
2022-10-13T04:45:20.321Z,13.80
2022-10-13T04:47:47.052Z,13.60
2022-10-13T04:50:13.760Z,13.60
2022-10-13T04:52:40.474Z,13.70
2022-10-13T04:55:08.939Z,13.70
2022-10-13T04:57:35.937Z,13.60
2022-10-13T05:00:03.892Z,13.40
2022-10-13T05:02:30.651Z,13.40
2022-10-13T05:04:57.372Z,13.40
2022-10-13T05:07:24.077Z,13.50
2022-10-13T05:09:51.946Z,13.60
2022-10-13T05:12:19.129Z,13.60
2022-10-13T05:14:46.135Z,13.50
2022-10-13T05:17:12.924Z,13.40
2022-10-13T05:19:39.659Z,13.30
2022-10-13T05:22:06.420Z,13.40
2022-10-13T05:24:36.632Z,13.30
2022-10-13T05:27:11.505Z,13.30
2022-10-13T05:29:38.983Z,13.40
2022-10-13T05:32:06.953Z,13.50
2022-10-13T05:34:33.821Z,13.60
2022-10-13T05:37:01.154Z,13.80
2022-10-13T05:39:27.917Z,13.70
2022-10-13T05:41:54.678Z,13.70
2022-10-13T05:44:21.752Z,13.80
2022-10-13T05:46:48.738Z,13.90
2022-10-13T05:49:16.030Z,14.00
2022-10-13T05:51:53.457Z,14.20
2022-10-13T05:54:24.616Z,14.10
2022-10-13T05:57:12.767Z,14.00
2022-10-13T05:59:43.949Z,14.10
2022-10-13T06:02:13.801Z,14.20
2022-10-13T06:04:45.812Z,14.10
2022-10-13T06:07:13.062Z,14.00
2022-10-13T06:09:41.703Z,13.90
2022-10-13T06:12:10.460Z,14.00
2022-10-13T06:14:37.610Z,14.10
2022-10-13T06:17:04.834Z,14.10
2022-10-13T06:19:31.889Z,14.10
2022-10-13T06:22:03.381Z,14.20
2022-10-13T06:24:30.717Z,14.30
2022-10-13T06:26:57.776Z,14.40
2022-10-13T06:29:24.490Z,14.30
2022-10-13T06:31:51.240Z,14.40
2022-10-13T06:34:18.123Z,14.50
2022-10-13T06:36:44.896Z,14.40
2022-10-13T06:39:12.122Z,14.40
2022-10-13T06:41:38.817Z,14.50
2022-10-13T06:44:05.612Z,14.40
2022-10-13T06:46:32.319Z,14.40
2022-10-13T06:48:59.607Z,14.30
2022-10-13T06:51:26.493Z,14.40
2022-10-13T06:53:55.114Z,14.50
2022-10-13T06:56:21.832Z,14.50
2022-10-13T06:58:48.592Z,14.60
2022-10-13T07:01:15.621Z,14.80
2022-10-13T07:03:42.332Z,14.80
2022-10-13T07:06:09.157Z,14.80
2022-10-13T07:08:35.977Z,15.10
2022-10-13T07:11:15.886Z,15.20
2022-10-13T07:13:46.402Z,15.30
2022-10-13T07:16:14.343Z,15.30
2022-10-13T07:18:41.241Z,15.40
2022-10-13T07:21:08.077Z,15.50
2022-10-13T07:23:34.795Z,15.60
2022-10-13T07:26:01.844Z,15.30
2022-10-13T07:28:28.856Z,15.30
2022-10-13T07:30:55.648Z,15.10
2022-10-13T07:33:22.430Z,15.00
2022-10-13T07:35:49.141Z,14.90
2022-10-13T07:38:16.072Z,14.80
2022-10-13T07:40:43.036Z,14.90
2022-10-13T07:43:09.989Z,14.90
2022-10-13T07:45:36.794Z,14.90
2022-10-13T07:48:03.677Z,14.90
2022-10-13T07:50:30.740Z,15.00
2022-10-13T07:52:57.482Z,15.20
2022-10-13T07:55:24.285Z,15.40
2022-10-13T07:57:51.015Z,15.70
2022-10-13T08:00:18.274Z,15.70
2022-10-13T08:02:45.052Z,15.90
2022-10-13T08:05:11.750Z,16.00
2022-10-13T08:07:39.381Z,15.90
2022-10-13T08:10:06.825Z,15.90
2022-10-13T08:12:36.117Z,15.90
2022-10-13T08:15:06.323Z,15.80
2022-10-13T08:17:33.797Z,15.90
2022-10-13T08:20:00.522Z,16.10
2022-10-13T08:22:28.562Z,16.10
2022-10-13T08:24:56.002Z,16.20
2022-10-13T08:27:37.053Z,16.40
2022-10-13T08:30:12.170Z,16.50
2022-10-13T08:32:38.992Z,16.70
2022-10-13T08:35:06.136Z,16.70
2022-10-13T08:37:32.957Z,16.80
2022-10-13T08:40:00.258Z,17.00
2022-10-13T08:42:27.312Z,17.10
2022-10-13T08:48:07.440Z,17.10
2022-10-13T08:50:39.140Z,17.20
2022-10-13T08:53:29.593Z,17.40
2022-10-13T08:56:05.033Z,17.30
2022-10-13T08:58:34.366Z,17.30
2022-10-13T09:01:07.199Z,17.20
2022-10-13T09:03:47.381Z,17.10
2022-10-13T09:06:18.961Z,17.10
2022-10-13T09:08:58.462Z,17.00
2022-10-13T09:11:37.434Z,17.20
2022-10-13T09:14:10.356Z,17.20
2022-10-13T09:16:43.040Z,17.30
2022-10-13T09:19:21.048Z,17.30
2022-10-13T09:21:52.654Z,17.30
2022-10-13T09:24:21.858Z,17.40
2022-10-13T09:26:52.500Z,17.30
2022-10-13T09:29:25.336Z,17.30
2022-10-13T09:32:07.669Z,17.20
2022-10-13T09:34:34.540Z,17.20
2022-10-13T09:37:05.100Z,17.30
2022-10-13T09:39:33.525Z,17.40
2022-10-13T09:42:21.207Z,17.50
2022-10-13T09:45:11.971Z,17.60
2022-10-13T09:47:39.542Z,17.60
2022-10-13T09:50:19.583Z,17.80
2022-10-13T09:52:47.592Z,17.90
2022-10-13T09:55:35.603Z,17.90
2022-10-13T09:58:19.228Z,18.10
2022-10-13T10:00:46.496Z,18.10
2022-10-13T10:03:19.187Z,18.30
2022-10-13T10:05:57.508Z,18.40
2022-10-13T10:09:03.661Z,18.60
2022-10-13T10:11:43.852Z,18.80
2022-10-13T10:14:29.321Z,18.90
2022-10-13T10:17:33.426Z,19.10
2022-10-13T10:20:25.121Z,19.30
2022-10-13T10:23:17.469Z,19.40
2022-10-13T10:25:57.991Z,19.50
2022-10-13T10:28:43.839Z,19.40
2022-10-13T10:31:48.897Z,19.50
2022-10-13T10:34:30.906Z,19.50
2022-10-13T10:37:21.460Z,19.50
2022-10-13T10:40:19.921Z,19.50
2022-10-13T10:43:08.354Z,19.60
2022-10-13T10:45:39.025Z,19.80
2022-10-13T10:48:37.349Z,19.90
2022-10-13T10:51:08.260Z,19.80
2022-10-13T10:53:55.206Z,20.00
2022-10-13T10:56:42.372Z,20.10
2022-10-13T10:59:18.337Z,20.20
2022-10-13T11:02:03.632Z,20.20
2022-10-13T11:04:40.274Z,20.20
2022-10-13T11:07:23.585Z,20.30
2022-10-13T11:09:54.016Z,20.40
2022-10-13T11:12:21.213Z,20.40
2022-10-13T11:15:02.264Z,20.50
2022-10-13T11:17:38.259Z,20.60
2022-10-13T11:20:17.933Z,20.50
2022-10-13T11:23:05.061Z,20.50
2022-10-13T11:25:45.760Z,20.50
2022-10-13T11:28:21.889Z,20.60
2022-10-13T11:31:33.726Z,20.70
2022-10-13T11:34:03.518Z,20.80
2022-10-13T11:36:54.616Z,20.90
2022-10-13T11:39:27.819Z,20.90
2022-10-13T11:42:42.061Z,21.00
2022-10-13T11:45:29.083Z,21.00
2022-10-13T11:48:28.128Z,20.90
2022-10-13T11:51:20.900Z,20.90
2022-10-13T11:53:56.746Z,21.00
2022-10-13T11:56:53.477Z,21.10
2022-10-13T11:59:29.258Z,21.10
2022-10-13T12:01:58.624Z,20.90
2022-10-13T12:04:28.036Z,21.00
2022-10-13T12:06:59.371Z,21.00
2022-10-13T12:09:27.583Z,21.00
2022-10-13T12:12:04.337Z,20.80
2022-10-13T12:17:27.696Z,21.00
2022-10-13T12:19:56.889Z,21.10
2022-10-13T12:22:23.919Z,21.20
2022-10-13T12:25:02.458Z,21.20
2022-10-13T12:27:34.038Z,21.10
2022-10-13T12:30:01.750Z,21.10
2022-10-13T12:32:31.787Z,21.10
2022-10-13T12:35:17.461Z,21.20
2022-10-13T12:37:44.564Z,21.30
2022-10-13T12:40:16.382Z,21.30
2022-10-13T12:42:43.770Z,21.40
2022-10-13T12:45:20.409Z,21.20
2022-10-13T12:47:50.522Z,21.30
2022-10-13T12:50:30.322Z,21.40
2022-10-13T12:53:20.530Z,21.30
2022-10-13T12:55:58.975Z,21.20
2022-10-13T12:58:27.601Z,21.20
2022-10-13T13:01:26.875Z,21.20
2022-10-13T13:04:13.378Z,21.20
2022-10-13T13:06:40.084Z,21.20
2022-10-13T13:09:29.008Z,21.10
2022-10-13T13:12:12.342Z,21.10
2022-10-13T13:14:48.513Z,21.00
2022-10-13T13:17:27.591Z,21.00
2022-10-13T13:20:21.125Z,21.10
2022-10-13T13:22:47.916Z,21.10
2022-10-13T13:25:15.398Z,20.90
2022-10-13T13:27:42.533Z,20.90
2022-10-13T13:30:14.745Z,20.80
2022-10-13T13:32:41.752Z,20.90
2022-10-13T13:35:09.434Z,20.80
2022-10-13T13:37:47.991Z,20.90
2022-10-13T13:40:18.812Z,21.00
2022-10-13T13:42:45.762Z,20.90
2022-10-13T13:45:14.018Z,20.90
2022-10-13T13:47:40.779Z,20.80
2022-10-13T13:50:31.675Z,20.70
2022-10-13T13:52:59.487Z,20.60
2022-10-13T13:55:27.595Z,20.50
2022-10-13T13:57:54.397Z,20.50
2022-10-13T14:00:21.633Z,20.40
2022-10-13T14:02:48.638Z,20.40
2022-10-13T14:05:15.782Z,20.30
2022-10-13T14:07:42.528Z,20.30
2022-10-13T14:10:10.261Z,20.30
2022-10-13T14:12:37.369Z,20.30
2022-10-13T14:15:04.484Z,20.30
2022-10-13T14:17:31.228Z,20.20
2022-10-13T14:19:57.960Z,20.20
2022-10-13T14:22:24.997Z,20.20
2022-10-13T14:24:51.981Z,20.00
2022-10-13T14:27:18.821Z,19.90
2022-10-13T14:29:45.574Z,19.90
2022-10-13T14:32:12.619Z,19.70
2022-10-13T14:34:39.383Z,19.70
2022-10-13T14:37:07.286Z,19.80
2022-10-13T14:39:34.040Z,19.90
2022-10-13T14:42:00.885Z,19.90
2022-10-13T14:44:27.585Z,20.00
2022-10-13T14:46:54.660Z,19.90
2022-10-13T14:49:21.374Z,19.90
2022-10-13T14:51:48.225Z,20.00
2022-10-13T14:54:14.937Z,19.40
2022-10-13T14:56:41.694Z,20.00
2022-10-13T14:59:10.892Z,20.00
2022-10-13T15:01:38.496Z,20.00
2022-10-13T15:04:05.533Z,19.90
2022-10-13T15:06:32.402Z,19.80
2022-10-13T15:08:59.226Z,19.90
2022-10-13T15:11:26.498Z,19.80
2022-10-13T15:13:53.597Z,19.70
2022-10-13T15:16:27.480Z,19.60
2022-10-13T15:18:55.322Z,19.50
2022-10-13T15:21:23.546Z,19.40
2022-10-13T15:23:50.502Z,19.50
2022-10-13T15:26:18.835Z,19.60
2022-10-13T15:28:48.066Z,19.60
2022-10-13T15:31:15.782Z,19.60
2022-10-13T15:33:44.696Z,19.60
2022-10-13T15:36:11.517Z,19.70
2022-10-13T15:38:38.422Z,19.60
2022-10-13T15:41:06.793Z,19.70
2022-10-13T15:43:37.912Z,19.70
2022-10-13T15:46:07.424Z,19.70
2022-10-13T15:48:34.800Z,19.60
2022-10-13T15:51:02.545Z,19.70
2022-10-13T15:53:30.169Z,19.70
2022-10-13T15:55:56.883Z,19.70
2022-10-13T15:58:23.624Z,19.60
2022-10-13T16:00:50.351Z,19.60
2022-10-13T16:03:18.437Z,19.50
2022-10-13T16:05:46.542Z,19.50
2022-10-13T16:08:14.346Z,19.30
2022-10-13T16:10:42.826Z,19.20
2022-10-13T16:13:14.176Z,19.10
2022-10-13T16:15:41.867Z,19.00
2022-10-13T16:18:08.598Z,18.80
2022-10-13T16:20:37.509Z,18.70
2022-10-13T16:23:05.031Z,18.70
2022-10-13T16:25:32.096Z,18.70
2022-10-13T16:28:01.992Z,18.70
2022-10-13T16:30:30.381Z,18.70
2022-10-13T16:32:58.019Z,18.70
2022-10-13T16:35:24.742Z,18.60
2022-10-13T16:37:51.477Z,18.60
2022-10-13T16:40:18.171Z,18.60
2022-10-13T16:42:45.368Z,18.50
2022-10-13T16:45:13.144Z,18.40
2022-10-13T16:47:39.858Z,18.30
2022-10-13T16:50:09.541Z,18.30
2022-10-13T16:52:37.424Z,18.20
2022-10-13T16:55:05.567Z,18.20
2022-10-13T16:57:32.656Z,18.20
2022-10-13T16:59:59.378Z,18.00
2022-10-13T17:02:26.129Z,18.10
2022-10-13T17:04:52.972Z,18.10
2022-10-13T17:07:19.990Z,18.10
2022-10-13T17:09:47.199Z,18.00
2022-10-13T17:12:14.385Z,18.00
2022-10-13T17:14:41.281Z,18.00
2022-10-13T17:17:07.989Z,18.00
2022-10-13T17:19:34.950Z,18.10
2022-10-13T17:22:01.673Z,18.00
2022-10-13T17:24:29.833Z,17.90
2022-10-13T17:26:56.605Z,17.80
2022-10-13T17:29:23.368Z,17.80
2022-10-13T17:31:50.120Z,17.70
2022-10-13T17:34:16.874Z,17.70
2022-10-13T17:36:43.614Z,17.70
2022-10-13T17:39:11.338Z,17.70
2022-10-13T17:41:38.062Z,17.60
2022-10-13T17:44:04.869Z,17.60
2022-10-13T17:46:38.042Z,17.60
2022-10-13T17:49:07.215Z,17.60
2022-10-13T17:51:34.126Z,17.60
2022-10-13T17:54:01.050Z,17.60
2022-10-13T17:56:28.578Z,17.50
2022-10-13T17:58:55.554Z,17.50
2022-10-13T18:01:27.763Z,17.50
2022-10-13T18:03:57.537Z,17.60
2022-10-13T18:06:24.616Z,17.60
2022-10-13T18:08:51.647Z,17.50
2022-10-13T18:11:20.643Z,17.50
2022-10-13T18:13:47.874Z,17.50
2022-10-13T18:16:20.435Z,17.60
2022-10-13T18:18:49.889Z,17.60
2022-10-13T18:21:19.123Z,17.60
2022-10-13T18:23:46.456Z,17.60
2022-10-13T18:26:16.128Z,17.50
2022-10-13T18:28:44.291Z,17.40
2022-10-13T18:31:13.470Z,17.40
2022-10-13T18:33:40.728Z,17.50
2022-10-13T18:36:23.460Z,17.40
2022-10-13T18:38:51.836Z,17.30
2022-10-13T18:41:20.928Z,17.20
2022-10-13T18:43:47.721Z,17.20
2022-10-13T18:46:14.676Z,17.20
2022-10-13T18:48:41.840Z,17.10
2022-10-13T18:51:11.765Z,17.20
2022-10-13T18:53:40.694Z,17.30
2022-10-13T18:56:12.709Z,17.40
2022-10-13T18:58:39.575Z,17.40
2022-10-13T19:01:08.998Z,17.40
2022-10-13T19:03:37.738Z,17.30
2022-10-13T19:06:06.474Z,17.30
2022-10-13T19:08:33.766Z,17.30
2022-10-13T19:11:01.180Z,17.20
2022-10-13T19:13:28.949Z,17.10
2022-10-13T19:16:02.984Z,17.00
2022-10-13T19:18:30.079Z,17.10
2022-10-13T19:20:56.828Z,17.10
2022-10-13T19:23:24.263Z,17.10
2022-10-13T19:25:51.649Z,17.10
2022-10-13T19:28:18.612Z,17.00
2022-10-13T19:30:45.692Z,16.90
2022-10-13T19:33:14.028Z,16.90
2022-10-13T19:35:42.673Z,16.80
2022-10-13T19:38:10.440Z,16.80
2022-10-13T19:40:42.385Z,16.80
2022-10-13T19:43:09.816Z,16.80
2022-10-13T19:45:36.723Z,16.80
2022-10-13T19:48:03.580Z,16.70
2022-10-13T19:50:33.329Z,16.70
2022-10-13T19:53:00.085Z,16.60
2022-10-13T19:55:26.961Z,16.60
2022-10-13T19:57:53.732Z,16.60
2022-10-13T20:00:20.494Z,16.70
2022-10-13T20:02:47.337Z,16.70
2022-10-13T20:05:14.172Z,16.70
2022-10-13T20:07:40.888Z,16.70
2022-10-13T20:10:07.947Z,16.70
2022-10-13T20:12:34.769Z,16.80
2022-10-13T20:15:01.539Z,16.90
2022-10-13T20:17:28.250Z,16.80
2022-10-13T20:19:55.039Z,16.70
2022-10-13T20:22:21.809Z,16.60
2022-10-13T20:24:49.069Z,16.50
2022-10-13T20:27:15.889Z,16.50
2022-10-13T20:29:42.640Z,16.50
2022-10-13T20:32:10.094Z,16.50
2022-10-13T20:34:37.441Z,16.40
2022-10-13T20:37:04.195Z,16.40
2022-10-13T20:39:31.048Z,16.50
2022-10-13T20:41:57.848Z,16.40
2022-10-13T20:44:24.765Z,16.40
2022-10-13T20:46:51.489Z,16.40
2022-10-13T20:49:18.311Z,16.40
2022-10-13T20:51:45.169Z,16.30
2022-10-13T20:54:13.978Z,16.20
2022-10-13T20:56:41.421Z,16.30
2022-10-13T20:59:10.454Z,16.30
2022-10-13T21:01:37.544Z,16.30
2022-10-13T21:04:04.755Z,16.40
2022-10-13T21:06:31.582Z,16.40
2022-10-13T21:08:58.335Z,16.40
2022-10-13T21:11:25.646Z,16.40
2022-10-13T21:13:52.908Z,16.40
2022-10-13T21:16:28.059Z,16.40
2022-10-13T21:18:56.736Z,16.40
2022-10-13T21:21:26.698Z,16.50
2022-10-13T21:23:58.344Z,16.50
2022-10-13T21:26:26.830Z,16.50
2022-10-13T21:28:54.284Z,16.40
2022-10-13T21:31:22.620Z,16.40
2022-10-13T21:33:52.238Z,16.40
2022-10-13T21:36:25.250Z,16.40
2022-10-13T21:38:58.869Z,16.40
2022-10-13T21:41:35.312Z,16.40
2022-10-13T21:44:03.060Z,16.40
2022-10-13T21:46:32.443Z,16.30
2022-10-13T21:49:01.705Z,16.30
2022-10-13T21:51:39.869Z,16.40
2022-10-13T21:54:12.262Z,16.40
2022-10-13T21:56:40.675Z,16.50
2022-10-13T21:59:08.745Z,16.50
2022-10-13T22:01:35.466Z,16.50
2022-10-13T22:04:02.774Z,16.50
2022-10-13T22:06:31.599Z,16.40
2022-10-13T22:09:00.441Z,16.40
2022-10-13T22:11:30.876Z,16.40
2022-10-13T22:13:58.690Z,16.40
2022-10-13T22:16:29.174Z,16.50
2022-10-13T22:18:57.544Z,16.40
2022-10-13T22:21:30.241Z,16.40
2022-10-13T22:23:59.356Z,16.30
2022-10-13T22:26:27.391Z,16.30
2022-10-13T22:28:54.530Z,16.50
2022-10-13T22:31:21.316Z,16.60
2022-10-13T22:33:48.103Z,16.60
2022-10-13T22:36:17.341Z,16.60
2022-10-13T22:38:46.388Z,16.60
2022-10-13T22:41:14.708Z,16.60
2022-10-13T22:43:44.088Z,16.60
2022-10-13T22:46:12.570Z,16.60
2022-10-13T22:48:40.964Z,16.50
2022-10-13T22:51:09.461Z,16.50
2022-10-13T22:53:36.538Z,16.50
2022-10-13T22:56:11.488Z,18.10
2022-10-13T22:58:38.753Z,16.50
2022-10-13T23:01:11.670Z,17.10
2022-10-13T23:03:39.380Z,16.60
2022-10-13T23:06:08.099Z,16.60
2022-10-13T23:08:35.458Z,16.60
2022-10-13T23:11:02.162Z,16.60
2022-10-13T23:13:28.912Z,16.60
2022-10-13T23:16:01.449Z,16.70
2022-10-13T23:18:28.161Z,16.60
2022-10-13T23:20:56.968Z,16.60
2022-10-13T23:23:24.077Z,16.70
2022-10-13T23:25:50.809Z,16.60
2022-10-13T23:28:17.613Z,16.50
2022-10-13T23:30:44.328Z,16.60
2022-10-13T23:33:11.024Z,16.60
2022-10-13T23:35:37.864Z,16.70
2022-10-13T23:38:04.551Z,16.70
2022-10-13T23:40:33.054Z,16.70
2022-10-13T23:42:59.756Z,16.70
2022-10-13T23:45:26.507Z,16.70
2022-10-13T23:47:53.325Z,16.70
2022-10-13T23:50:20.051Z,16.70
2022-10-13T23:52:46.729Z,16.70
2022-10-13T23:55:14.027Z,16.60
2022-10-13T23:57:40.811Z,16.50
